Hoofdpagina
Satellietbeelden 15-daagse BerichtenKlimaatMaritieme meteorologie Cyclonen Bliksem VliegveldenFAQ Nieuwsbrief Over ons
Weer : Europa Afrika Noord-Amerika Zuid-Amerika Azië Australië-Oceanië Anderen
Talen Contact

Oostende, België

breedte: 51-12N, lengte: 002-52E, hoogte: 4 m


METAR: EBOS 180250Z 36009KT 9999 FEW045 09/03 Q1016 NOSIG
short-TAF: verouderd (36710 uren)
long-TAF: EBOS 171710Z 1718/1824 31010KT 9999 BKN040 TEMPO 1719/1721 RA BKN014 BECMG 1808/1810 01015KT

Uur: 05:06 (03:06 UTC)

Actueel weer

Dit bericht werd 16 minuten geleden gemaakt, om 02:50 UTC  
Wind 09 kt van noorden
Temperatuur 9°C
Vochtigheid 66%
Druk 1016 hPa
Zicht 10 km of meer
Weinig wolken op een hoogte van 4500 ft

Eenheden wisselen

Verwachting

Dit bericht werd 9 uren en 39 minuten geleden gemaakt, om 17:27 UTC  
Verwachting geldig van 17 om 18 UTC tot 18 om 24 UTC
Wind 10 kt van noordwesten
Zicht 10 km of meer
Gebroken wolken op een hoogte van 4000 ft
Tijdelijke
van 17 om 19 UTC tot 17 om 21 UTC
Gebroken wolken op een hoogte van 1400 ft
regen
Het gaat worden
van 18 om 08 UTC tot 18 om 10 UTC
Wind 15 kt van noorden
Voor de informatie op deze site gelden een verklaring van afwijzing van aansprakelijkheid
Weer : Europa Afrika Noord-Amerika Zuid-Amerika Azië Australië-Oceanië Anderen
Satellietbeelden 15-daagse BerichtenKlimaatMaritieme meteorologie Cyclonen Bliksem VliegveldenFAQ Talen Contact Nieuwsbrief Over ons